sensor_id;sensor_type;location;lat;lon;timestamp;temperature;humidity
37874;DHT22;23709;48.078;11.684;2023-08-17T00:01:37;18.80;99.90
37874;DHT22;23709;48.078;11.684;2023-08-17T00:04:09;18.80;99.90
37874;DHT22;23709;48.078;11.684;2023-08-17T00:06:42;18.80;99.90
37874;DHT22;23709;48.078;11.684;2023-08-17T00:09:15;18.70;99.90
37874;DHT22;23709;48.078;11.684;2023-08-17T00:11:47;18.70;99.90
37874;DHT22;23709;48.078;11.684;2023-08-17T00:14:19;18.70;99.90
37874;DHT22;23709;48.078;11.684;2023-08-17T00:16:52;18.70;99.90
37874;DHT22;23709;48.078;11.684;2023-08-17T00:19:24;18.60;99.90
37874;DHT22;23709;48.078;11.684;2023-08-17T00:21:56;18.60;99.90
37874;DHT22;23709;48.078;11.684;2023-08-17T00:24:28;18.50;99.90
37874;DHT22;23709;48.078;11.684;2023-08-17T00:27:01;18.50;99.90
37874;DHT22;23709;48.078;11.684;2023-08-17T00:29:33;18.50;99.90
37874;DHT22;23709;48.078;11.684;2023-08-17T00:32:07;18.40;99.90
37874;DHT22;23709;48.078;11.684;2023-08-17T00:34:41;18.40;99.90
37874;DHT22;23709;48.078;11.684;2023-08-17T00:37:13;18.40;99.90
37874;DHT22;23709;48.078;11.684;2023-08-17T00:39:45;18.40;99.90
37874;DHT22;23709;48.078;11.684;2023-08-17T00:42:18;18.40;99.90
37874;DHT22;23709;48.078;11.684;2023-08-17T00:44:50;18.40;99.90
37874;DHT22;23709;48.078;11.684;2023-08-17T00:47:23;18.50;99.90
37874;DHT22;23709;48.078;11.684;2023-08-17T00:49:58;18.50;99.90
37874;DHT22;23709;48.078;11.684;2023-08-17T00:52:32;18.50;99.90
37874;DHT22;23709;48.078;11.684;2023-08-17T00:55:05;18.50;99.90
37874;DHT22;23709;48.078;11.684;2023-08-17T00:57:39;18.50;99.90
37874;DHT22;23709;48.078;11.684;2023-08-17T01:00:12;18.40;99.90
37874;DHT22;23709;48.078;11.684;2023-08-17T01:02:49;18.40;99.90
37874;DHT22;23709;48.078;11.684;2023-08-17T01:05:21;18.30;99.90
37874;DHT22;23709;48.078;11.684;2023-08-17T01:07:55;18.30;99.90
37874;DHT22;23709;48.078;11.684;2023-08-17T01:10:47;18.20;99.90
37874;DHT22;23709;48.078;11.684;2023-08-17T01:13:25;18.20;99.90
37874;DHT22;23709;48.078;11.684;2023-08-17T01:16:05;18.20;99.90
37874;DHT22;23709;48.078;11.684;2023-08-17T01:18:40;18.20;99.90
37874;DHT22;23709;48.078;11.684;2023-08-17T01:21:14;18.20;99.90
37874;DHT22;23709;48.078;11.684;2023-08-17T01:23:49;18.10;99.90
37874;DHT22;23709;48.078;11.684;2023-08-17T01:26:22;18.30;99.90
37874;DHT22;23709;48.078;11.684;2023-08-17T01:28:54;18.40;99.90
37874;DHT22;23709;48.078;11.684;2023-08-17T01:31:29;18.30;99.90
37874;DHT22;23709;48.078;11.684;2023-08-17T01:34:06;18.20;99.90
37874;DHT22;23709;48.078;11.684;2023-08-17T01:36:43;18.10;99.90
37874;DHT22;23709;48.078;11.684;2023-08-17T01:39:17;18.10;99.90
37874;DHT22;23709;48.078;11.684;2023-08-17T01:41:51;18.10;99.90
37874;DHT22;23709;48.078;11.684;2023-08-17T01:44:24;18.10;99.90
37874;DHT22;23709;48.078;11.684;2023-08-17T01:46:58;18.00;99.90
37874;DHT22;23709;48.078;11.684;2023-08-17T01:49:30;18.00;99.90
37874;DHT22;23709;48.078;11.684;2023-08-17T01:52:03;17.90;99.90
37874;DHT22;23709;48.078;11.684;2023-08-17T01:54:36;17.90;99.90
37874;DHT22;23709;48.078;11.684;2023-08-17T01:57:08;18.00;99.90
37874;DHT22;23709;48.078;11.684;2023-08-17T01:59:40;18.20;99.90
37874;DHT22;23709;48.078;11.684;2023-08-17T02:02:12;18.10;99.90
37874;DHT22;23709;48.078;11.684;2023-08-17T02:04:46;18.00;99.90
37874;DHT22;23709;48.078;11.684;2023-08-17T02:07:19;18.00;99.90
37874;DHT22;23709;48.078;11.684;2023-08-17T02:09:54;18.00;99.90
37874;DHT22;23709;48.078;11.684;2023-08-17T02:12:26;18.00;99.90
37874;DHT22;23709;48.078;11.684;2023-08-17T02:14:58;18.10;99.90
37874;DHT22;23709;48.078;11.684;2023-08-17T02:17:31;18.00;99.90
37874;DHT22;23709;48.078;11.684;2023-08-17T02:20:04;17.90;99.90
37874;DHT22;23709;48.078;11.684;2023-08-17T02:22:36;17.90;99.90
37874;DHT22;23709;48.078;11.684;2023-08-17T02:25:08;17.80;99.90
37874;DHT22;23709;48.078;11.684;2023-08-17T02:27:41;17.80;99.90
37874;DHT22;23709;48.078;11.684;2023-08-17T02:30:14;17.90;99.90
37874;DHT22;23709;48.078;11.684;2023-08-17T02:32:46;17.90;99.90
37874;DHT22;23709;48.078;11.684;2023-08-17T02:35:19;17.90;99.90
37874;DHT22;23709;48.078;11.684;2023-08-17T02:37:51;17.80;99.90
37874;DHT22;23709;48.078;11.684;2023-08-17T02:40:24;17.80;99.90
37874;DHT22;23709;48.078;11.684;2023-08-17T02:42:56;17.70;99.90
37874;DHT22;23709;48.078;11.684;2023-08-17T02:45:28;17.80;99.90
37874;DHT22;23709;48.078;11.684;2023-08-17T02:48:02;17.90;99.90
37874;DHT22;23709;48.078;11.684;2023-08-17T02:50:34;18.10;99.90
37874;DHT22;23709;48.078;11.684;2023-08-17T02:53:07;18.10;99.90
37874;DHT22;23709;48.078;11.684;2023-08-17T02:55:39;18.10;99.90
37874;DHT22;23709;48.078;11.684;2023-08-17T02:58:12;18.10;99.90
37874;DHT22;23709;48.078;11.684;2023-08-17T03:00:44;18.00;99.90
37874;DHT22;23709;48.078;11.684;2023-08-17T03:03:18;17.90;99.90
37874;DHT22;23709;48.078;11.684;2023-08-17T03:05:51;18.00;99.90
37874;DHT22;23709;48.078;11.684;2023-08-17T03:08:23;18.00;99.90
37874;DHT22;23709;48.078;11.684;2023-08-17T03:10:57;18.00;99.90
37874;DHT22;23709;48.078;11.684;2023-08-17T03:13:29;18.00;99.90
37874;DHT22;23709;48.078;11.684;2023-08-17T03:16:02;18.00;99.90
37874;DHT22;23709;48.078;11.684;2023-08-17T03:18:35;18.10;99.90
37874;DHT22;23709;48.078;11.684;2023-08-17T03:21:07;18.10;99.90
37874;DHT22;23709;48.078;11.684;2023-08-17T03:23:40;18.10;99.90
37874;DHT22;23709;48.078;11.684;2023-08-17T03:26:13;18.10;99.90
37874;DHT22;23709;48.078;11.684;2023-08-17T03:28:45;18.00;99.90
37874;DHT22;23709;48.078;11.684;2023-08-17T03:31:20;17.90;99.90
37874;DHT22;23709;48.078;11.684;2023-08-17T03:33:53;17.90;99.90
37874;DHT22;23709;48.078;11.684;2023-08-17T03:36:28;17.90;99.90
37874;DHT22;23709;48.078;11.684;2023-08-17T03:39:00;18.00;99.90
37874;DHT22;23709;48.078;11.684;2023-08-17T03:41:32;17.90;99.90
37874;DHT22;23709;48.078;11.684;2023-08-17T03:44:04;17.90;99.90
37874;DHT22;23709;48.078;11.684;2023-08-17T03:46:38;17.80;99.90
37874;DHT22;23709;48.078;11.684;2023-08-17T03:49:10;17.80;99.90
37874;DHT22;23709;48.078;11.684;2023-08-17T03:51:43;17.70;99.90
37874;DHT22;23709;48.078;11.684;2023-08-17T03:54:17;17.60;99.90
37874;DHT22;23709;48.078;11.684;2023-08-17T03:56:49;17.60;99.90
37874;DHT22;23709;48.078;11.684;2023-08-17T03:59:21;17.60;99.90
37874;DHT22;23709;48.078;11.684;2023-08-17T04:01:54;17.60;99.90
37874;DHT22;23709;48.078;11.684;2023-08-17T04:04:26;17.50;99.90
37874;DHT22;23709;48.078;11.684;2023-08-17T04:07:00;17.50;99.90
37874;DHT22;23709;48.078;11.684;2023-08-17T04:09:33;17.50;99.90
37874;DHT22;23709;48.078;11.684;2023-08-17T04:12:06;17.50;99.90
37874;DHT22;23709;48.078;11.684;2023-08-17T04:14:41;17.50;99.90
37874;DHT22;23709;48.078;11.684;2023-08-17T04:17:13;17.40;99.90
37874;DHT22;23709;48.078;11.684;2023-08-17T04:19:46;17.40;99.90
37874;DHT22;23709;48.078;11.684;2023-08-17T04:22:18;17.40;99.90
37874;DHT22;23709;48.078;11.684;2023-08-17T04:24:50;17.40;99.90
37874;DHT22;23709;48.078;11.684;2023-08-17T04:27:22;17.40;99.90
37874;DHT22;23709;48.078;11.684;2023-08-17T04:29:56;17.30;99.90
37874;DHT22;23709;48.078;11.684;2023-08-17T04:32:29;17.30;99.90
37874;DHT22;23709;48.078;11.684;2023-08-17T04:35:02;17.40;99.90
37874;DHT22;23709;48.078;11.684;2023-08-17T04:37:34;17.40;99.90
37874;DHT22;23709;48.078;11.684;2023-08-17T04:40:08;17.30;99.90
37874;DHT22;23709;48.078;11.684;2023-08-17T04:42:41;17.30;99.90
37874;DHT22;23709;48.078;11.684;2023-08-17T04:45:13;17.30;99.90
37874;DHT22;23709;48.078;11.684;2023-08-17T04:47:49;17.40;99.90
37874;DHT22;23709;48.078;11.684;2023-08-17T04:50:22;17.40;99.90
37874;DHT22;23709;48.078;11.684;2023-08-17T04:52:54;17.40;99.90
37874;DHT22;23709;48.078;11.684;2023-08-17T04:55:26;17.50;99.90
37874;DHT22;23709;48.078;11.684;2023-08-17T04:58:00;17.40;99.90
37874;DHT22;23709;48.078;11.684;2023-08-17T05:00:32;17.40;99.90
37874;DHT22;23709;48.078;11.684;2023-08-17T05:03:05;17.40;99.90
37874;DHT22;23709;48.078;11.684;2023-08-17T05:05:47;17.50;99.90
37874;DHT22;23709;48.078;11.684;2023-08-17T05:08:20;17.60;99.90
37874;DHT22;23709;48.078;11.684;2023-08-17T05:10:54;17.60;99.90
37874;DHT22;23709;48.078;11.684;2023-08-17T05:13:26;17.70;99.90
37874;DHT22;23709;48.078;11.684;2023-08-17T05:16:02;17.80;99.90
37874;DHT22;23709;48.078;11.684;2023-08-17T05:18:35;17.90;99.90
37874;DHT22;23709;48.078;11.684;2023-08-17T05:21:07;18.00;99.90
37874;DHT22;23709;48.078;11.684;2023-08-17T05:23:39;18.00;99.90
37874;DHT22;23709;48.078;11.684;2023-08-17T05:26:12;18.00;99.90
37874;DHT22;23709;48.078;11.684;2023-08-17T05:28:48;18.10;99.90
37874;DHT22;23709;48.078;11.684;2023-08-17T05:31:20;18.10;99.90
37874;DHT22;23709;48.078;11.684;2023-08-17T05:33:54;18.10;99.90
37874;DHT22;23709;48.078;11.684;2023-08-17T05:36:29;18.20;99.90
37874;DHT22;23709;48.078;11.684;2023-08-17T05:39:01;18.30;99.90
37874;DHT22;23709;48.078;11.684;2023-08-17T05:41:34;18.20;99.90
37874;DHT22;23709;48.078;11.684;2023-08-17T05:44:06;18.40;99.90
37874;DHT22;23709;48.078;11.684;2023-08-17T05:46:39;18.60;99.90
37874;DHT22;23709;48.078;11.684;2023-08-17T05:49:12;18.70;99.90
37874;DHT22;23709;48.078;11.684;2023-08-17T05:51:44;18.80;99.90
37874;DHT22;23709;48.078;11.684;2023-08-17T05:54:16;19.00;99.90
37874;DHT22;23709;48.078;11.684;2023-08-17T05:56:49;19.00;99.90
37874;DHT22;23709;48.078;11.684;2023-08-17T05:59:21;19.00;99.90
37874;DHT22;23709;48.078;11.684;2023-08-17T06:01:53;19.20;99.90
37874;DHT22;23709;48.078;11.684;2023-08-17T06:04:26;19.30;99.90
37874;DHT22;23709;48.078;11.684;2023-08-17T06:06:58;19.40;99.90
37874;DHT22;23709;48.078;11.684;2023-08-17T06:09:30;19.50;99.90
37874;DHT22;23709;48.078;11.684;2023-08-17T06:12:03;19.50;99.90
37874;DHT22;23709;48.078;11.684;2023-08-17T06:14:35;19.60;99.90
37874;DHT22;23709;48.078;11.684;2023-08-17T06:17:07;19.70;99.90
37874;DHT22;23709;48.078;11.684;2023-08-17T06:19:40;19.80;99.90
37874;DHT22;23709;48.078;11.684;2023-08-17T06:22:12;19.90;99.90
37874;DHT22;23709;48.078;11.684;2023-08-17T06:24:44;20.10;99.90
37874;DHT22;23709;48.078;11.684;2023-08-17T06:27:17;20.20;99.90
37874;DHT22;23709;48.078;11.684;2023-08-17T06:29:49;20.30;99.90
37874;DHT22;23709;48.078;11.684;2023-08-17T06:32:21;20.40;99.90
37874;DHT22;23709;48.078;11.684;2023-08-17T06:34:53;20.50;99.90
37874;DHT22;23709;48.078;11.684;2023-08-17T06:37:26;20.60;99.90
37874;DHT22;23709;48.078;11.684;2023-08-17T06:39:59;20.80;99.90
37874;DHT22;23709;48.078;11.684;2023-08-17T06:42:31;20.80;99.90
37874;DHT22;23709;48.078;11.684;2023-08-17T06:45:06;20.90;99.90
37874;DHT22;23709;48.078;11.684;2023-08-17T06:47:38;21.00;99.90
37874;DHT22;23709;48.078;11.684;2023-08-17T06:50:11;21.20;99.90
37874;DHT22;23709;48.078;11.684;2023-08-17T06:52:44;21.30;99.90
37874;DHT22;23709;48.078;11.684;2023-08-17T06:55:16;21.40;99.90
37874;DHT22;23709;48.078;11.684;2023-08-17T06:57:49;21.50;99.90
37874;DHT22;23709;48.078;11.684;2023-08-17T07:00:25;21.60;99.90
37874;DHT22;23709;48.078;11.684;2023-08-17T07:02:58;21.70;99.90
37874;DHT22;23709;48.078;11.684;2023-08-17T07:05:32;21.90;99.90
37874;DHT22;23709;48.078;11.684;2023-08-17T07:08:05;22.10;99.90
37874;DHT22;23709;48.078;11.684;2023-08-17T07:10:37;22.20;99.90
37874;DHT22;23709;48.078;11.684;2023-08-17T07:13:09;22.20;99.90
37874;DHT22;23709;48.078;11.684;2023-08-17T07:15:41;22.40;99.90
37874;DHT22;23709;48.078;11.684;2023-08-17T07:18:14;22.50;99.90
37874;DHT22;23709;48.078;11.684;2023-08-17T07:20:46;22.60;99.90
37874;DHT22;23709;48.078;11.684;2023-08-17T07:23:18;22.80;99.90
37874;DHT22;23709;48.078;11.684;2023-08-17T07:25:51;23.00;99.90
37874;DHT22;23709;48.078;11.684;2023-08-17T07:28:23;23.00;99.90
37874;DHT22;23709;48.078;11.684;2023-08-17T07:30:56;23.20;99.90
37874;DHT22;23709;48.078;11.684;2023-08-17T07:33:28;23.20;99.90
37874;DHT22;23709;48.078;11.684;2023-08-17T07:36:01;23.30;99.90
37874;DHT22;23709;48.078;11.684;2023-08-17T07:38:33;23.40;99.90
37874;DHT22;23709;48.078;11.684;2023-08-17T07:41:06;23.40;99.90
37874;DHT22;23709;48.078;11.684;2023-08-17T07:43:38;23.50;99.90
37874;DHT22;23709;48.078;11.684;2023-08-17T07:46:11;23.50;99.90
37874;DHT22;23709;48.078;11.684;2023-08-17T07:48:43;23.60;99.90
37874;DHT22;23709;48.078;11.684;2023-08-17T07:51:16;23.80;99.90
37874;DHT22;23709;48.078;11.684;2023-08-17T07:53:48;23.80;99.90
37874;DHT22;23709;48.078;11.684;2023-08-17T07:56:20;23.90;99.90
37874;DHT22;23709;48.078;11.684;2023-08-17T07:58:55;23.90;99.90
37874;DHT22;23709;48.078;11.684;2023-08-17T08:01:28;24.00;99.90
37874;DHT22;23709;48.078;11.684;2023-08-17T08:04:01;24.10;99.90
37874;DHT22;23709;48.078;11.684;2023-08-17T08:06:33;24.20;99.90
37874;DHT22;23709;48.078;11.684;2023-08-17T08:09:06;24.30;99.90
37874;DHT22;23709;48.078;11.684;2023-08-17T08:11:39;24.50;99.90
37874;DHT22;23709;48.078;11.684;2023-08-17T08:14:11;24.70;99.90
37874;DHT22;23709;48.078;11.684;2023-08-17T08:16:43;24.80;99.90
37874;DHT22;23709;48.078;11.684;2023-08-17T08:19:16;25.00;99.90
37874;DHT22;23709;48.078;11.684;2023-08-17T08:21:48;25.00;99.90
37874;DHT22;23709;48.078;11.684;2023-08-17T08:24:20;25.20;99.90
37874;DHT22;23709;48.078;11.684;2023-08-17T08:27:09;25.20;99.90
37874;DHT22;23709;48.078;11.684;2023-08-17T08:29:41;25.30;99.90
37874;DHT22;23709;48.078;11.684;2023-08-17T08:32:13;25.40;99.90
37874;DHT22;23709;48.078;11.684;2023-08-17T08:34:46;25.60;99.90
37874;DHT22;23709;48.078;11.684;2023-08-17T08:37:18;25.70;99.90
37874;DHT22;23709;48.078;11.684;2023-08-17T08:39:52;25.60;99.90
37874;DHT22;23709;48.078;11.684;2023-08-17T08:42:25;25.70;99.90
37874;DHT22;23709;48.078;11.684;2023-08-17T08:44:58;25.60;99.90
37874;DHT22;23709;48.078;11.684;2023-08-17T08:47:31;25.60;99.90
37874;DHT22;23709;48.078;11.684;2023-08-17T08:50:06;25.70;99.90
37874;DHT22;23709;48.078;11.684;2023-08-17T08:52:42;25.90;99.90
37874;DHT22;23709;48.078;11.684;2023-08-17T08:55:18;25.80;99.90
37874;DHT22;23709;48.078;11.684;2023-08-17T08:57:52;25.80;99.90
37874;DHT22;23709;48.078;11.684;2023-08-17T09:00:26;25.90;99.90
37874;DHT22;23709;48.078;11.684;2023-08-17T09:02:59;26.00;99.90
37874;DHT22;23709;48.078;11.684;2023-08-17T09:05:33;26.00;99.90
37874;DHT22;23709;48.078;11.684;2023-08-17T09:08:08;26.00;99.90
37874;DHT22;23709;48.078;11.684;2023-08-17T09:10:47;26.00;99.90
37874;DHT22;23709;48.078;11.684;2023-08-17T09:13:22;26.10;99.90
37874;DHT22;23709;48.078;11.684;2023-08-17T09:15:59;26.20;99.90
37874;DHT22;23709;48.078;11.684;2023-08-17T09:18:38;26.10;99.90
37874;DHT22;23709;48.078;11.684;2023-08-17T09:21:23;26.20;99.90
37874;DHT22;23709;48.078;11.684;2023-08-17T09:23:56;26.30;99.90
37874;DHT22;23709;48.078;11.684;2023-08-17T09:26:31;26.30;99.90
37874;DHT22;23709;48.078;11.684;2023-08-17T09:29:18;26.20;99.90
37874;DHT22;23709;48.078;11.684;2023-08-17T09:31:50;26.30;99.90
37874;DHT22;23709;48.078;11.684;2023-08-17T09:34:23;26.30;99.90
37874;DHT22;23709;48.078;11.684;2023-08-17T09:37:05;26.40;99.90
37874;DHT22;23709;48.078;11.684;2023-08-17T09:39:37;26.50;99.90
37874;DHT22;23709;48.078;11.684;2023-08-17T09:42:10;26.60;99.90
37874;DHT22;23709;48.078;11.684;2023-08-17T09:44:43;26.70;99.90
37874;DHT22;23709;48.078;11.684;2023-08-17T09:47:19;26.80;99.90
37874;DHT22;23709;48.078;11.684;2023-08-17T09:49:55;26.80;99.90
37874;DHT22;23709;48.078;11.684;2023-08-17T09:52:27;26.90;99.90
37874;DHT22;23709;48.078;11.684;2023-08-17T09:55:00;27.00;99.90
37874;DHT22;23709;48.078;11.684;2023-08-17T09:57:40;27.10;99.90
37874;DHT22;23709;48.078;11.684;2023-08-17T10:00:13;27.30;99.90
37874;DHT22;23709;48.078;11.684;2023-08-17T10:02:49;27.40;99.90
37874;DHT22;23709;48.078;11.684;2023-08-17T10:05:22;27.50;99.30
37874;DHT22;23709;48.078;11.684;2023-08-17T10:07:57;27.50;98.70
37874;DHT22;23709;48.078;11.684;2023-08-17T10:10:35;27.60;98.50
37874;DHT22;23709;48.078;11.684;2023-08-17T10:13:23;27.60;97.90
37874;DHT22;23709;48.078;11.684;2023-08-17T10:18:54;27.90;98.00
37874;DHT22;23709;48.078;11.684;2023-08-17T10:21:40;28.00;96.80
37874;DHT22;23709;48.078;11.684;2023-08-17T10:24:16;28.00;95.60
37874;DHT22;23709;48.078;11.684;2023-08-17T10:26:49;28.10;96.10
37874;DHT22;23709;48.078;11.684;2023-08-17T10:29:29;28.30;96.40
37874;DHT22;23709;48.078;11.684;2023-08-17T10:32:03;28.40;95.20
37874;DHT22;23709;48.078;11.684;2023-08-17T10:34:38;28.50;95.10
37874;DHT22;23709;48.078;11.684;2023-08-17T10:37:11;28.60;96.30
37874;DHT22;23709;48.078;11.684;2023-08-17T10:39:48;28.70;96.60
37874;DHT22;23709;48.078;11.684;2023-08-17T10:42:35;28.70;96.60
37874;DHT22;23709;48.078;11.684;2023-08-17T10:45:31;28.80;96.00
37874;DHT22;23709;48.078;11.684;2023-08-17T10:50:39;29.00;94.30
37874;DHT22;23709;48.078;11.684;2023-08-17T10:53:14;29.00;94.80
37874;DHT22;23709;48.078;11.684;2023-08-17T10:55:57;29.20;94.70
37874;DHT22;23709;48.078;11.684;2023-08-17T10:58:32;29.20;93.50
37874;DHT22;23709;48.078;11.684;2023-08-17T11:01:05;29.30;93.20
37874;DHT22;23709;48.078;11.684;2023-08-17T11:03:41;29.40;93.30
37874;DHT22;23709;48.078;11.684;2023-08-17T11:06:15;29.50;91.00
37874;DHT22;23709;48.078;11.684;2023-08-17T11:08:55;29.60;91.80
37874;DHT22;23709;48.078;11.684;2023-08-17T11:11:31;29.70;92.70
37874;DHT22;23709;48.078;11.684;2023-08-17T11:14:03;30.00;91.60
37874;DHT22;23709;48.078;11.684;2023-08-17T11:16:35;30.20;92.50
37874;DHT22;23709;48.078;11.684;2023-08-17T11:19:11;30.70;91.50
37874;DHT22;23709;48.078;11.684;2023-08-17T11:21:45;30.80;90.40
37874;DHT22;23709;48.078;11.684;2023-08-17T11:24:17;30.90;89.10
37874;DHT22;23709;48.078;11.684;2023-08-17T11:26:50;31.00;90.40
37874;DHT22;23709;48.078;11.684;2023-08-17T11:29:23;31.10;90.00
37874;DHT22;23709;48.078;11.684;2023-08-17T11:31:55;31.00;90.50
37874;DHT22;23709;48.078;11.684;2023-08-17T11:34:29;30.80;92.00
37874;DHT22;23709;48.078;11.684;2023-08-17T11:37:02;30.80;92.50
37874;DHT22;23709;48.078;11.684;2023-08-17T11:39:36;31.00;92.60
37874;DHT22;23709;48.078;11.684;2023-08-17T11:42:08;31.30;91.40
37874;DHT22;23709;48.078;11.684;2023-08-17T11:44:41;31.70;92.50
37874;DHT22;23709;48.078;11.684;2023-08-17T11:47:15;32.00;91.90
37874;DHT22;23709;48.078;11.684;2023-08-17T11:49:48;32.20;91.90
37874;DHT22;23709;48.078;11.684;2023-08-17T11:52:26;32.50;92.60
37874;DHT22;23709;48.078;11.684;2023-08-17T11:54:59;32.70;90.70
37874;DHT22;23709;48.078;11.684;2023-08-17T11:57:32;32.90;91.10
37874;DHT22;23709;48.078;11.684;2023-08-17T12:00:06;33.10;90.00
37874;DHT22;23709;48.078;11.684;2023-08-17T12:02:39;33.30;88.00
37874;DHT22;23709;48.078;11.684;2023-08-17T12:05:21;33.50;90.50
37874;DHT22;23709;48.078;11.684;2023-08-17T12:07:55;33.70;89.90
37874;DHT22;23709;48.078;11.684;2023-08-17T12:10:33;33.70;88.30
37874;DHT22;23709;48.078;11.684;2023-08-17T12:13:11;33.60;85.40
37874;DHT22;23709;48.078;11.684;2023-08-17T12:15:44;33.40;85.60
37874;DHT22;23709;48.078;11.684;2023-08-17T12:18:22;33.30;89.10
37874;DHT22;23709;48.078;11.684;2023-08-17T12:20:55;33.90;88.70
37874;DHT22;23709;48.078;11.684;2023-08-17T12:23:28;34.10;85.60
37874;DHT22;23709;48.078;11.684;2023-08-17T12:26:00;34.00;82.30
37874;DHT22;23709;48.078;11.684;2023-08-17T12:28:35;34.20;84.60
37874;DHT22;23709;48.078;11.684;2023-08-17T12:31:07;34.10;81.80
37874;DHT22;23709;48.078;11.684;2023-08-17T12:33:40;34.20;79.70
37874;DHT22;23709;48.078;11.684;2023-08-17T12:36:12;33.90;81.80
37874;DHT22;23709;48.078;11.684;2023-08-17T12:38:44;33.80;79.70
37874;DHT22;23709;48.078;11.684;2023-08-17T12:41:17;33.80;78.50
37874;DHT22;23709;48.078;11.684;2023-08-17T12:43:49;33.50;79.70
37874;DHT22;23709;48.078;11.684;2023-08-17T12:46:22;33.40;80.80
37874;DHT22;23709;48.078;11.684;2023-08-17T12:48:54;33.30;79.60
37874;DHT22;23709;48.078;11.684;2023-08-17T12:51:26;33.40;82.20
37874;DHT22;23709;48.078;11.684;2023-08-17T12:54:01;33.40;80.50
37874;DHT22;23709;48.078;11.684;2023-08-17T12:56:35;33.60;77.60
37874;DHT22;23709;48.078;11.684;2023-08-17T12:59:07;33.80;75.60
37874;DHT22;23709;48.078;11.684;2023-08-17T13:01:40;34.00;75.00
37874;DHT22;23709;48.078;11.684;2023-08-17T13:04:13;34.00;73.80
37874;DHT22;23709;48.078;11.684;2023-08-17T13:06:48;34.40;72.70
37874;DHT22;23709;48.078;11.684;2023-08-17T13:09:21;34.60;71.10
37874;DHT22;23709;48.078;11.684;2023-08-17T13:11:53;34.80;70.70
37874;DHT22;23709;48.078;11.684;2023-08-17T13:14:26;34.90;71.40
37874;DHT22;23709;48.078;11.684;2023-08-17T13:16:59;35.10;69.30
37874;DHT22;23709;48.078;11.684;2023-08-17T13:19:31;35.10;69.00
37874;DHT22;23709;48.078;11.684;2023-08-17T13:22:03;35.20;70.20
37874;DHT22;23709;48.078;11.684;2023-08-17T13:24:41;35.10;66.40
37874;DHT22;23709;48.078;11.684;2023-08-17T13:27:13;35.10;66.40
37874;DHT22;23709;48.078;11.684;2023-08-17T13:29:46;35.30;66.00
37874;DHT22;23709;48.078;11.684;2023-08-17T13:32:18;35.40;66.70
37874;DHT22;23709;48.078;11.684;2023-08-17T13:34:51;35.30;65.90
37874;DHT22;23709;48.078;11.684;2023-08-17T13:37:26;35.30;66.10
37874;DHT22;23709;48.078;11.684;2023-08-17T13:40:00;35.30;68.10
37874;DHT22;23709;48.078;11.684;2023-08-17T13:42:33;35.30;67.00
37874;DHT22;23709;48.078;11.684;2023-08-17T13:45:06;35.10;66.20
37874;DHT22;23709;48.078;11.684;2023-08-17T13:47:39;35.10;67.20
37874;DHT22;23709;48.078;11.684;2023-08-17T13:50:11;35.20;65.60
37874;DHT22;23709;48.078;11.684;2023-08-17T13:52:46;35.40;66.10
37874;DHT22;23709;48.078;11.684;2023-08-17T13:55:19;35.20;65.50
37874;DHT22;23709;48.078;11.684;2023-08-17T13:57:51;35.10;65.50
37874;DHT22;23709;48.078;11.684;2023-08-17T14:00:28;35.30;64.60
37874;DHT22;23709;48.078;11.684;2023-08-17T14:03:00;35.10;65.10
37874;DHT22;23709;48.078;11.684;2023-08-17T14:05:34;35.40;64.70
37874;DHT22;23709;48.078;11.684;2023-08-17T14:08:06;35.40;65.40
37874;DHT22;23709;48.078;11.684;2023-08-17T14:10:38;35.60;66.70
37874;DHT22;23709;48.078;11.684;2023-08-17T14:13:18;35.40;63.50
37874;DHT22;23709;48.078;11.684;2023-08-17T14:15:50;35.60;63.90
37874;DHT22;23709;48.078;11.684;2023-08-17T14:18:23;35.30;62.90
37874;DHT22;23709;48.078;11.684;2023-08-17T14:20:55;34.60;63.10
37874;DHT22;23709;48.078;11.684;2023-08-17T14:23:27;33.80;64.20
37874;DHT22;23709;48.078;11.684;2023-08-17T14:25:59;33.10;66.00
37874;DHT22;23709;48.078;11.684;2023-08-17T14:28:32;32.70;67.00
37874;DHT22;23709;48.078;11.684;2023-08-17T14:31:04;32.40;68.50
37874;DHT22;23709;48.078;11.684;2023-08-17T14:33:36;31.90;68.80
37874;DHT22;23709;48.078;11.684;2023-08-17T14:36:09;31.60;70.20
37874;DHT22;23709;48.078;11.684;2023-08-17T14:38:41;31.50;70.20
37874;DHT22;23709;48.078;11.684;2023-08-17T14:41:13;31.30;71.20
37874;DHT22;23709;48.078;11.684;2023-08-17T14:43:45;31.10;72.20
37874;DHT22;23709;48.078;11.684;2023-08-17T14:46:18;31.00;72.60
37874;DHT22;23709;48.078;11.684;2023-08-17T14:48:50;30.80;73.30
37874;DHT22;23709;48.078;11.684;2023-08-17T14:51:23;30.60;73.70
37874;DHT22;23709;48.078;11.684;2023-08-17T14:54:02;30.50;74.30
37874;DHT22;23709;48.078;11.684;2023-08-17T14:56:34;30.30;75.90
37874;DHT22;23709;48.078;11.684;2023-08-17T14:59:06;30.20;75.30
37874;DHT22;23709;48.078;11.684;2023-08-17T15:01:41;30.00;75.20
37874;DHT22;23709;48.078;11.684;2023-08-17T15:04:14;29.90;76.00
37874;DHT22;23709;48.078;11.684;2023-08-17T15:06:46;29.80;75.70
37874;DHT22;23709;48.078;11.684;2023-08-17T15:09:18;29.90;74.40
37874;DHT22;23709;48.078;11.684;2023-08-17T15:11:51;29.90;74.70
37874;DHT22;23709;48.078;11.684;2023-08-17T15:14:23;30.10;75.20
37874;DHT22;23709;48.078;11.684;2023-08-17T15:16:56;30.40;73.50
37874;DHT22;23709;48.078;11.684;2023-08-17T15:19:28;30.70;74.30
37874;DHT22;23709;48.078;11.684;2023-08-17T15:22:08;31.10;74.00
37874;DHT22;23709;48.078;11.684;2023-08-17T15:24:46;31.60;72.80
37874;DHT22;23709;48.078;11.684;2023-08-17T15:27:19;31.90;71.70
37874;DHT22;23709;48.078;11.684;2023-08-17T15:29:51;32.00;71.50
37874;DHT22;23709;48.078;11.684;2023-08-17T15:32:23;32.30;70.60
37874;DHT22;23709;48.078;11.684;2023-08-17T15:34:55;32.10;70.70
37874;DHT22;23709;48.078;11.684;2023-08-17T15:37:28;32.00;71.70
37874;DHT22;23709;48.078;11.684;2023-08-17T15:40:01;31.90;71.80
37874;DHT22;23709;48.078;11.684;2023-08-17T15:42:33;31.70;71.80
37874;DHT22;23709;48.078;11.684;2023-08-17T15:45:09;31.40;71.50
37874;DHT22;23709;48.078;11.684;2023-08-17T15:47:41;31.20;72.60
37874;DHT22;23709;48.078;11.684;2023-08-17T15:50:14;30.80;74.30
37874;DHT22;23709;48.078;11.684;2023-08-17T15:52:46;30.60;75.10
37874;DHT22;23709;48.078;11.684;2023-08-17T15:55:19;30.30;76.00
37874;DHT22;23709;48.078;11.684;2023-08-17T15:57:51;30.20;76.40
37874;DHT22;23709;48.078;11.684;2023-08-17T16:00:24;30.00;77.00